LFLY/LYN METAR and TAF weather

Enter ICAO airport designator
Station Type Date Time Source
LFLY METAR 2019/10/23 13:30 UTC NOAA

LFLY 231330Z AUTO 32004KT 220V030 9999 FEW015/// BKN100/// BKN150/// ///TCU 16/13 Q1010 BECMG SCT014 BKN110


Station Type Date Time Source
LFLY Decoded METAR 2019/10/23 13:30 UTC NOAA

Lyon / Bron, France (LFLY) 45-43N 004-57E 201M
Oct 23, 2019 - 09:30 AM EDT / 2019.10.23 1330 UTC
Wind: from the NW (320 degrees) at 5 MPH (4 KT) (direction variable):0
Visibility: greater than 7 mile(s):0
Sky conditions: mostly cloudy
Weather: Towering cumulus clouds observed
Temperature: 60 F (16 C)
Dew Point: 55 F (13 C)
Relative Humidity: 82%
Pressure (altimeter): 29.83 in. Hg (1010 hPa)
ob: LFLY 231330Z AUTO 32004KT 220V030 9999 FEW015/// BKN100/// BKN150/// ///TCU 16/13 Q1010 BECMG SCT014 BKN110
cycle: 13

Station Type Date Time Source
LFLY TAF 2019/10/23 12:42 UTC NOAA

TAF LFLY 231100Z 2312/2412 36005KT 9999 BKN013 BKN150
BECMG 2313/2315 SCT014 BKN110
TEMPO 2316/2401 VRB15KT 4000 RA SCT025 BKN050 BKN100 PROB30
TEMPO 2316/2318 VRB15KT 2000 SHRA SCT015 BKN050 SCT080CB PROB30
TEMPO 2323/2401 14015KT 2000 SHRA SCT015 BKN050 SCT080CB
BECMG 2401/2403 18010KT CAVOK
TEMPO 2404/2409 20015G25KT

Example: see airport list